Time;durP1;ratioP1;P1;durP2;ratioP2;P2;SDS_P1;SDS_P2;PMS_P1;PMS_P2;Temp;Humidity;BMP_temperature;BMP_pressure;BME280_temperature;BME280_humidity;BME280_pressure;Samples;Min_cycle;Max_cycle;Signal;HPM_P1;HPM_P2
2023/03/31 00:00:35;;;;;;;101.57;93.95;;;0.00;99.90;;;;;;5268464;28;20451;-67
2023/03/31 00:03:12;;;;;;;101.78;94.13;;;-0.20;99.90;;;;;;5268098;28;20095;-67
2023/03/31 00:05:46;;;;;;;95.80;88.45;;;0.00;99.90;;;;;;5268059;28;20096;-67
2023/03/31 00:08:18;;;;;;;108.55;100.57;;;0.10;99.90;;;;;;5268053;28;20020;-67
2023/03/31 00:10:49;;;;;;;102.85;95.88;;;-0.10;99.90;;;;;;5268073;28;20403;-67
2023/03/31 00:13:19;;;;;;;94.68;87.78;;;0.30;99.90;;;;;;5268037;28;20038;-67
2023/03/31 00:16:00;;;;;;;97.30;90.55;;;0.10;99.90;;;;;;5268127;28;20051;-67
2023/03/31 00:18:31;;;;;;;90.90;84.47;;;-0.10;99.90;;;;;;5268110;28;20024;-67
2023/03/31 00:21:23;;;;;;;218.85;205.30;;;0.20;99.90;;;;;;5267947;28;20499;-67
2023/03/31 00:24:13;;;;;;;114.68;106.97;;;0.20;99.90;;;;;;5267828;28;20123;-67
2023/03/31 00:26:44;;;;;;;116.28;107.97;;;0.20;99.90;;;;;;5267868;28;20081;-67
2023/03/31 00:29:15;;;;;;;110.28;102.45;;;0.20;99.90;;;;;;5267773;28;20034;-67
2023/03/31 00:31:46;;;;;;;119.63;111.15;;;0.30;99.90;;;;;;5267583;28;20135;-67
2023/03/31 00:34:17;;;;;;;114.00;105.72;;;0.30;99.90;;;;;;5267765;28;20067;-67
2023/03/31 00:36:48;;;;;;;118.53;110.07;;;0.10;99.90;;;;;;5267775;28;20082;-67
2023/03/31 00:39:19;;;;;;;119.22;110.18;;;0.30;99.90;;;;;;5267737;28;20508;-67
2023/03/31 00:41:50;;;;;;;108.28;100.10;;;0.00;99.90;;;;;;5267720;28;20028;-67
2023/03/31 00:44:25;;;;;;;103.25;95.78;;;0.30;99.90;;;;;;5267648;28;20024;-67
2023/03/31 00:47:01;;;;;;;123.38;114.22;;;0.30;99.90;;;;;;5267628;28;20488;-66
2023/03/31 00:49:44;;;;;;;123.10;113.85;;;0.10;99.90;;;;;;5267714;28;20414;-67
2023/03/31 00:52:18;;;;;;;132.25;122.65;;;0.50;99.90;;;;;;5267702;28;20137;-67
2023/03/31 00:54:58;;;;;;;122.57;113.60;;;0.40;99.90;;;;;;5267499;28;20127;-67
2023/03/31 00:57:32;;;;;;;121.35;112.63;;;0.20;99.90;;;;;;5267530;28;20107;-67
2023/03/31 01:00:17;;;;;;;120.40;111.70;;;0.50;99.90;;;;;;5267668;28;20028;-67
2023/03/31 01:02:58;;;;;;;125.95;117.10;;;0.50;99.90;;;;;;5268622;28;20024;-67
2023/03/31 01:05:46;;;;;;;121.22;112.28;;;0.50;99.90;;;;;;5271368;28;20028;-66
2023/03/31 01:08:18;;;;;;;140.85;128.98;;;0.50;99.90;;;;;;5271652;28;20054;-66
2023/03/31 01:10:56;;;;;;;153.43;139.95;;;0.50;99.90;;;;;;5271291;28;20053;-67
2023/03/31 01:13:29;;;;;;;140.35;127.45;;;0.30;99.90;;;;;;5271414;28;20472;-67
2023/03/31 01:16:00;;;;;;;163.75;150.98;;;0.60;99.90;;;;;;5271670;28;20407;-66
2023/03/31 01:18:33;;;;;;;159.23;145.65;;;0.60;99.90;;;;;;5271265;28;20028;-66
2023/03/31 01:21:55;;;;;;;140.50;128.68;;;0.50;99.90;;;;;;5271293;28;20065;-67
2023/03/31 01:25:06;;;;;;;132.02;120.90;;;0.30;99.90;;;;;;5257494;28;20044;-67
2023/03/31 01:27:57;;;;;;;127.35;116.75;;;0.50;99.90;;;;;;5271247;28;20040;-66
2023/03/31 01:30:27;;;;;;;;;;;0.60;99.90;;;;;;5253238;28;20487;-67
2023/03/31 01:33:19;;;;;;;110.72;101.95;;;0.70;99.90;;;;;;5270576;28;19924;-67
2023/03/31 01:36:08;;;;;;;238.77;224.82;;;0.50;99.90;;;;;;5270912;28;20103;-67
2023/03/31 01:39:03;;;;;;;138.43;127.97;;;0.70;99.90;;;;;;5252618;28;20035;-67
2023/03/31 01:41:52;;;;;;;149.88;138.48;;;0.50;99.90;;;;;;5270598;28;20020;-67
2023/03/31 01:44:49;;;;;;;139.88;129.30;;;0.80;99.90;;;;;;5270475;28;20020;-66
2023/03/31 01:47:39;;;;;;;142.00;130.82;;;0.50;99.90;;;;;;5270726;28;20098;-67
2023/03/31 01:50:39;;;;;;;137.60;127.38;;;0.60;99.90;;;;;;5252322;28;20475;-67
2023/03/31 01:53:26;;;;;;;128.85;119.50;;;0.60;99.90;;;;;;5270603;28;20028;-67
2023/03/31 01:56:11;;;;;;;139.93;129.00;;;0.60;99.90;;;;;;5270563;28;20353;-67
2023/03/31 01:58:55;;;;;;;136.77;126.60;;;0.50;99.90;;;;;;5270531;28;20035;-67
2023/03/31 02:01:34;;;;;;;143.65;133.10;;;0.60;99.90;;;;;;5270256;28;20043;-66
2023/03/31 02:04:19;;;;;;;138.98;128.60;;;0.40;99.90;;;;;;5719514;23;20492;-66
2023/03/31 02:06:59;;;;;;;121.97;112.75;;;0.70;99.90;;;;;;5233167;28;20037;-66
2023/03/31 02:09:38;;;;;;;117.13;109.43;;;0.60;99.90;;;;;;5228590;28;20025;-67
2023/03/31 02:12:11;;;;;;;110.53;103.40;;;0.70;99.90;;;;;;5228618;28;20381;-66
2023/03/31 02:14:45;;;;;;;121.90;113.95;;;0.90;99.90;;;;;;5236446;28;20052;-67
2023/03/31 02:17:19;;;;;;;106.95;99.93;;;1.10;99.90;;;;;;5249508;28;20020;-66
2023/03/31 02:19:52;;;;;;;134.65;126.10;;;1.20;99.90;;;;;;5237975;28;20025;-68
2023/03/31 02:22:25;;;;;;;113.63;106.28;;;1.50;99.90;;;;;;5228263;28;20044;-67
2023/03/31 02:25:00;;;;;;;129.00;120.78;;;1.50;99.90;;;;;;5228385;28;20027;-67
2023/03/31 02:27:41;;;;;;;113.97;106.70;;;1.60;99.90;;;;;;5228694;28;20041;-68
2023/03/31 02:30:13;;;;;;;115.68;108.10;;;2.00;99.90;;;;;;5228368;28;20036;-67
2023/03/31 02:32:45;;;;;;;135.57;127.00;;;1.70;99.90;;;;;;5228186;28;20036;-67
2023/03/31 02:35:19;;;;;;;124.15;116.13;;;2.30;99.90;;;;;;5228088;28;20377;-67
2023/03/31 02:37:50;;;;;;;135.43;126.85;;;2.10;99.90;;;;;;5228066;28;20029;-67
2023/03/31 02:40:26;;;;;;;122.32;114.63;;;2.50;99.90;;;;;;5228020;28;20055;-67
2023/03/31 02:42:57;;;;;;;119.15;111.72;;;2.30;99.90;;;;;;5227994;28;20058;-67
2023/03/31 02:45:48;;;;;;;114.65;107.30;;;2.60;99.90;;;;;;5227930;28;20465;-67
2023/03/31 02:48:31;;;;;;;114.40;106.57;;;2.40;99.90;;;;;;5227926;28;20033;-67
2023/03/31 02:51:08;;;;;;;105.40;98.40;;;2.10;99.90;;;;;;5227895;28;20052;-66
2023/03/31 02:54:12;;;;;;;122.88;115.25;;;2.50;99.90;;;;;;5227879;28;20029;-67
2023/03/31 02:56:55;;;;;;;128.00;119.65;;;2.40;99.90;;;;;;5227921;28;20033;-67
2023/03/31 02:59:48;;;;;;;123.82;115.82;;;2.40;99.90;;;;;;5227781;28;20067;-67
2023/03/31 03:02:53;;;;;;;119.35;111.35;;;2.50;99.90;;;;;;5227609;28;20477;-67
2023/03/31 03:06:04;;;;;;;127.40;119.45;;;2.60;99.90;;;;;;5227178;28;20049;-67
2023/03/31 03:09:05;;;;;;;114.72;107.60;;;3.30;99.90;;;;;;5248267;28;20032;-68
2023/03/31 03:11:36;;;;;;;98.07;91.63;;;3.40;99.90;;;;;;5247945;28;20016;-67
2023/03/31 03:14:18;;;;;;;102.43;95.65;;;3.00;99.90;;;;;;5248044;28;20046;-67
2023/03/31 03:16:58;;;;;;;83.93;78.50;;;4.10;99.90;;;;;;5227774;28;20041;-67
2023/03/31 03:19:29;;;;;;;84.53;78.85;;;3.90;99.90;;;;;;5227169;28;20048;-68
2023/03/31 03:22:00;;;;;;;107.85;101.10;;;4.10;99.90;;;;;;5227116;28;20033;-67
2023/03/31 03:24:33;;;;;;;71.15;66.53;;;4.40;99.90;;;;;;5240324;28;20457;-67
2023/03/31 03:27:04;;;;;;;68.10;63.55;;;4.90;99.90;;;;;;5227384;28;20111;-68
2023/03/31 03:29:34;;;;;;;66.32;61.90;;;4.70;99.90;;;;;;5234974;28;20103;-68
2023/03/31 03:32:05;;;;;;;54.28;50.47;;;4.70;99.90;;;;;;5247608;28;20036;-68
2023/03/31 03:34:36;;;;;;;58.28;53.88;;;4.70;99.90;;;;;;5247554;28;20032;-68
2023/03/31 03:37:07;;;;;;;77.07;72.07;;;4.70;99.90;;;;;;5247486;28;20060;-67
2023/03/31 03:39:38;;;;;;;68.78;64.32;;;4.80;99.90;;;;;;5247726;28;20406;-67
2023/03/31 03:42:09;;;;;;;79.03;73.82;;;4.80;99.90;;;;;;5247530;28;20031;-67
2023/03/31 03:44:40;;;;;;;70.82;66.00;;;4.70;99.90;;;;;;5247909;28;20368;-68
2023/03/31 03:47:11;;;;;;;64.25;59.67;;;4.90;99.90;;;;;;5246238;28;20384;-68
2023/03/31 03:49:42;;;;;;;71.70;66.80;;;5.30;99.90;;;;;;5247601;28;20078;-68
2023/03/31 03:52:13;;;;;;;70.70;66.10;;;5.10;99.90;;;;;;5247375;28;20465;-68
2023/03/31 03:54:43;;;;;;;72.95;68.18;;;5.20;99.90;;;;;;5247302;28;20020;-68
2023/03/31 03:57:15;;;;;;;85.75;80.13;;;5.40;99.90;;;;;;5247245;28;20029;-67
2023/03/31 03:59:46;;;;;;;78.18;73.20;;;5.60;99.90;;;;;;5227527;28;20099;-68
2023/03/31 04:02:17;;;;;;;90.68;84.85;;;5.50;99.90;;;;;;5226470;28;20143;-68
2023/03/31 04:04:48;;;;;;;75.45;70.70;;;5.70;99.90;;;;;;5231978;28;20053;-67
2023/03/31 04:07:18;;;;;;;74.22;69.55;;;5.70;99.90;;;;;;5247178;28;20079;-68
2023/03/31 04:09:49;;;;;;;84.88;79.30;;;5.80;99.90;;;;;;5247219;28;20024;-68
2023/03/31 04:12:20;;;;;;;80.28;74.95;;;5.90;99.90;;;;;;5247160;28;20032;-67
2023/03/31 04:14:51;;;;;;;63.75;59.53;;;6.10;99.90;;;;;;5247122;28;20097;-67
2023/03/31 04:17:31;;;;;;;75.60;70.82;;;6.20;99.90;;;;;;5247092;28;20027;-67
2023/03/31 04:20:10;;;;;;;68.90;64.33;;;6.30;99.90;;;;;;5247175;28;20395;-68
2023/03/31 04:22:41;;;;;;;60.20;56.08;;;6.20;99.90;;;;;;5245652;28;20473;-68
2023/03/31 04:25:15;;;;;;;74.25;69.65;;;6.40;99.90;;;;;;5246521;28;20035;-68
2023/03/31 04:27:54;;;;;;;61.17;57.03;;;6.50;99.90;;;;;;5246983;28;20033;-68
2023/03/31 04:30:32;;;;;;;71.10;66.50;;;6.40;99.90;;;;;;5247014;28;20025;-68
2023/03/31 04:33:05;;;;;;;71.10;66.30;;;6.50;99.90;;;;;;5246853;28;20028;-68
2023/03/31 04:35:51;;;;;;;66.38;62.13;;;6.50;99.90;;;;;;5246347;28;20102;-68
2023/03/31 04:38:23;;;;;;;76.75;72.03;;;6.70;99.90;;;;;;5248889;28;20036;-68
2023/03/31 04:40:55;;;;;;;86.95;81.30;;;6.60;99.90;;;;;;5250820;28;20025;-68
2023/03/31 04:43:25;;;;;;;80.30;75.28;;;6.50;99.90;;;;;;5250948;28;20106;-69
2023/03/31 04:45:56;;;;;;;85.32;80.13;;;6.50;99.90;;;;;;5250632;28;20499;-69
2023/03/31 04:48:27;;;;;;;58.42;54.45;;;6.60;99.90;;;;;;5250982;28;20028;-68
2023/03/31 04:50:58;;;;;;;64.88;60.58;;;6.60;99.90;;;;;;5249500;28;20029;-68
2023/03/31 04:53:29;;;;;;;60.30;56.40;;;6.60;99.90;;;;;;5250960;28;20024;-68
2023/03/31 04:56:00;;;;;;;61.53;57.47;;;6.50;99.90;;;;;;5249633;28;20013;-68
2023/03/31 04:58:31;;;;;;;63.42;58.95;;;6.60;99.90;;;;;;5251040;28;20655;-68
2023/03/31 05:01:07;;;;;;;66.85;62.65;;;6.80;99.90;;;;;;5250739;28;20039;-69
2023/03/31 05:03:38;;;;;;;67.68;63.15;;;6.80;99.90;;;;;;5250041;28;20037;-68
2023/03/31 05:06:09;;;;;;;67.82;63.20;;;6.80;99.90;;;;;;5250174;28;20044;-69
2023/03/31 05:08:40;;;;;;;67.43;63.22;;;6.90;99.90;;;;;;5250364;28;20480;-69
2023/03/31 05:11:11;;;;;;;65.60;61.35;;;7.00;99.90;;;;;;5250508;28;20021;-68
2023/03/31 05:13:42;;;;;;;65.75;61.17;;;7.40;99.90;;;;;;5250434;28;20373;-68
2023/03/31 05:16:15;;;;;;;67.18;62.80;;;7.60;99.90;;;;;;5250354;28;20035;-68
2023/03/31 05:18:46;;;;;;;57.33;53.35;;;7.60;99.90;;;;;;5250423;28;20062;-68
2023/03/31 05:21:20;;;;;;;51.08;47.67;;;7.80;99.90;;;;;;5250282;28;20488;-68
2023/03/31 05:23:50;;;;;;;54.13;50.10;;;7.90;99.90;;;;;;5250197;28;20042;-68
2023/03/31 05:26:23;;;;;;;55.53;51.70;;;8.00;99.90;;;;;;5250136;28;20048;-68
2023/03/31 05:28:54;;;;;;;56.92;52.92;;;8.20;99.90;;;;;;5250213;28;20027;-68
2023/03/31 05:31:26;;;;;;;68.30;63.55;;;8.30;99.90;;;;;;5250027;28;20020;-68
2023/03/31 05:33:56;;;;;;;66.68;62.17;;;8.30;99.90;;;;;;5250015;28;20025;-69
2023/03/31 05:36:27;;;;;;;58.03;53.97;;;8.20;99.90;;;;;;5250062;28;20027;-68
2023/03/31 05:38:58;;;;;;;56.67;52.55;;;8.30;99.90;;;;;;5249839;28;20070;-68
2023/03/31 05:41:29;;;;;;;57.70;53.50;;;8.40;99.90;;;;;;5249803;28;20488;-68
2023/03/31 05:44:03;;;;;;;59.00;54.80;;;8.60;99.90;;;;;;5249770;28;20067;-68
2023/03/31 05:46:34;;;;;;;59.35;55.15;;;8.80;99.90;;;;;;5249734;28;20121;-68
2023/03/31 05:49:05;;;;;;;90.80;84.90;;;8.90;99.90;;;;;;5249360;28;20115;-68
2023/03/31 05:51:36;;;;;;;56.13;52.40;;;8.80;99.90;;;;;;5249675;28;20058;-68
2023/03/31 05:54:07;;;;;;;54.10;50.45;;;8.90;99.90;;;;;;5249460;28;20028;-68
2023/03/31 05:56:38;;;;;;;57.70;53.75;;;8.90;99.90;;;;;;5249471;28;20035;-69
2023/03/31 05:59:09;;;;;;;54.53;51.05;;;8.90;99.90;;;;;;5249329;28;20025;-68
2023/03/31 06:01:40;;;;;;;50.17;46.63;;;8.90;99.90;;;;;;5249483;28;20020;-69
2023/03/31 06:04:11;;;;;;;53.17;49.20;;;9.00;99.90;;;;;;5249050;28;20160;-69
2023/03/31 06:06:43;;;;;;;51.88;48.33;;;9.10;99.90;;;;;;5249349;28;20067;-67
2023/03/31 06:09:14;;;;;;;56.00;52.47;;;9.20;99.90;;;;;;5249343;28;20016;-69
2023/03/31 06:11:45;;;;;;;48.83;45.22;;;9.20;99.90;;;;;;5249537;28;20081;-69
2023/03/31 06:14:16;;;;;;;48.17;44.95;;;9.30;99.90;;;;;;5249474;28;20033;-68
2023/03/31 06:16:48;;;;;;;48.40;45.33;;;9.30;99.90;;;;;;5247785;28;20533;-69
2023/03/31 06:19:19;;;;;;;44.42;41.50;;;9.40;99.90;;;;;;5239232;28;20056;-68
2023/03/31 06:21:51;;;;;;;48.53;45.28;;;9.50;99.90;;;;;;5228434;28;20017;-68
2023/03/31 06:24:21;;;;;;;42.80;39.88;;;9.60;99.90;;;;;;5228230;28;20028;-68
2023/03/31 06:26:52;;;;;;;39.90;37.30;;;9.80;99.90;;;;;;5228162;28;20037;-70
2023/03/31 06:29:23;;;;;;;39.63;37.00;;;9.90;99.90;;;;;;5228307;28;20024;-70
2023/03/31 06:31:54;;;;;;;39.67;37.08;;;9.90;99.90;;;;;;5228312;28;20146;-70
2023/03/31 06:34:25;;;;;;;40.17;37.67;;;10.00;99.90;;;;;;5227892;28;20051;-70
2023/03/31 06:36:57;;;;;;;39.40;36.88;;;10.10;99.90;;;;;;5228087;28;20412;-70
2023/03/31 06:39:28;;;;;;;97.43;91.53;;;10.20;99.90;;;;;;5228153;28;20036;-69
2023/03/31 06:41:59;;;;;;;38.28;35.65;;;10.30;99.90;;;;;;5227936;28;20469;-70
2023/03/31 06:44:30;;;;;;;43.15;40.05;;;10.40;99.90;;;;;;5227960;28;20032;-70
2023/03/31 06:47:00;;;;;;;71.68;66.97;;;10.50;99.90;;;;;;5227856;28;20037;-70
2023/03/31 06:49:31;;;;;;;133.73;125.50;;;10.50;99.90;;;;;;5227954;28;20044;-70
2023/03/31 06:52:02;;;;;;;65.32;61.38;;;10.50;99.90;;;;;;5227650;28;20063;-71
2023/03/31 06:54:33;;;;;;;49.63;46.63;;;10.60;99.90;;;;;;5227686;28;20032;-69
2023/03/31 06:57:04;;;;;;;56.45;52.45;;;10.70;99.90;;;;;;5227681;28;20028;-70
2023/03/31 06:59:35;;;;;;;42.45;39.85;;;10.70;99.90;;;;;;5227570;28;20028;-73
2023/03/31 07:02:06;;;;;;;47.70;44.60;;;10.70;99.90;;;;;;5226728;28;20644;-74
2023/03/31 07:04:37;;;;;;;40.13;37.65;;;10.70;99.90;;;;;;5227362;28;20132;-70
2023/03/31 07:07:08;;;;;;;42.95;40.20;;;10.50;99.90;;;;;;5243147;28;20131;-70
2023/03/31 07:09:39;;;;;;;39.17;36.78;;;10.70;99.90;;;;;;5248042;28;20108;-70
2023/03/31 07:12:10;;;;;;;42.10;39.33;;;10.90;99.90;;;;;;5247830;28;20139;-70
2023/03/31 07:14:41;;;;;;;41.08;38.38;;;11.00;99.90;;;;;;5247912;28;20028;-70
2023/03/31 07:17:11;;;;;;;62.33;58.00;;;11.00;99.90;;;;;;5247915;28;20476;-70
2023/03/31 07:19:46;;;;;;;38.22;35.85;;;10.90;99.90;;;;;;5247926;28;20024;-71
2023/03/31 07:22:17;;;;;;;37.53;34.88;;;11.10;99.90;;;;;;5247854;28;20032;-69
2023/03/31 07:24:48;;;;;;;42.35;39.38;;;11.10;99.90;;;;;;5247685;28;20404;-68
2023/03/31 07:27:19;;;;;;;60.97;57.22;;;11.10;99.90;;;;;;5247840;28;20038;-70
2023/03/31 07:29:50;;;;;;;46.80;44.10;;;11.20;99.90;;;;;;5242503;28;20029;-70
2023/03/31 07:32:22;;;;;;;108.05;100.25;;;11.30;99.90;;;;;;5238142;28;20055;-70
2023/03/31 07:34:53;;;;;;;37.85;35.35;;;11.10;99.90;;;;;;5247670;28;20064;-70
2023/03/31 07:37:24;;;;;;;40.55;38.20;;;11.10;99.90;;;;;;5247456;28;20044;-73
2023/03/31 07:39:55;;;;;;;37.38;35.08;;;11.20;99.90;;;;;;5247501;28;20079;-69
2023/03/31 07:42:25;;;;;;;46.15;43.22;;;11.30;99.90;;;;;;5247471;28;20048;-69
2023/03/31 07:44:57;;;;;;;44.25;41.70;;;11.20;99.90;;;;;;5247497;28;20431;-69
2023/03/31 07:47:28;;;;;;;36.75;34.47;;;11.30;99.90;;;;;;5247278;28;20045;-69
2023/03/31 07:49:59;;;;;;;48.72;45.67;;;11.30;99.90;;;;;;5246055;28;20396;-69
2023/03/31 07:52:30;;;;;;;36.70;34.25;;;11.30;99.90;;;;;;5246941;28;20024;-69
2023/03/31 07:55:01;;;;;;;37.47;35.17;;;11.20;99.90;;;;;;5247062;28;20063;-69
2023/03/31 07:57:31;;;;;;;45.80;43.05;;;11.50;99.90;;;;;;5246847;28;20035;-69
2023/03/31 08:00:07;;;;;;;43.67;40.85;;;11.40;99.90;;;;;;5246304;28;20031;-70
2023/03/31 08:02:44;;;;;;;41.60;39.05;;;11.50;99.90;;;;;;5247187;28;20021;-68
2023/03/31 08:05:17;;;;;;;47.95;44.97;;;11.50;99.80;;;;;;5246710;28;20068;-68
2023/03/31 08:07:49;;;;;;;45.05;41.97;;;11.70;96.40;;;;;;5247209;28;20082;-68
2023/03/31 08:10:25;;;;;;;48.83;45.92;;;12.10;99.90;;;;;;5247167;28;20104;-69
2023/03/31 08:12:56;;;;;;;46.75;43.97;;;11.80;99.90;;;;;;5247076;28;20035;-69
2023/03/31 08:15:27;;;;;;;54.85;51.55;;;12.20;99.90;;;;;;5247085;28;20507;-69
2023/03/31 08:17:58;;;;;;;65.45;61.38;;;12.40;98.50;;;;;;5247009;28;20376;-68
2023/03/31 08:20:29;;;;;;;52.08;48.85;;;12.30;99.60;;;;;;5247065;28;20016;-69
2023/03/31 08:23:00;;;;;;;48.55;45.58;;;12.10;99.90;;;;;;5247116;28;20056;-68
2023/03/31 08:25:31;;;;;;;53.20;50.05;;;12.10;99.90;;;;;;5246815;28;20025;-68
2023/03/31 08:28:02;;;;;;;49.67;46.47;;;12.20;99.90;;;;;;5246945;28;20090;-69
2023/03/31 08:30:33;;;;;;;99.63;93.55;;;12.00;99.90;;;;;;5246990;28;20035;-69
2023/03/31 08:33:04;;;;;;;50.83;47.60;;;12.00;99.90;;;;;;5246768;28;20036;-68
2023/03/31 08:35:35;;;;;;;49.15;45.78;;;12.30;99.90;;;;;;5246844;28;20476;-69
2023/03/31 08:38:06;;;;;;;37.08;34.88;;;12.40;99.90;;;;;;5246892;28;20044;-69
2023/03/31 08:40:40;;;;;;;34.90;32.67;;;12.30;99.30;;;;;;5247088;28;20644;-69
2023/03/31 08:43:22;;;;;;;43.80;40.88;;;12.50;99.90;;;;;;5247067;28;20033;-70
2023/03/31 08:45:53;;;;;;;43.67;40.75;;;12.60;99.90;;;;;;5246833;28;20051;-69
2023/03/31 08:48:43;;;;;;;39.45;36.90;;;12.70;99.90;;;;;;5246952;28;20028;-69
2023/03/31 08:51:20;;;;;;;;;;;12.60;99.90;;;;;;5247364;28;20041;-70
2023/03/31 08:53:58;;;;;;;39.53;37.13;;;12.70;99.90;;;;;;5246879;28;19905;-70
2023/03/31 08:56:38;;;;;;;48.97;45.08;;;12.80;99.90;;;;;;5246883;28;20020;-70
2023/03/31 08:59:32;;;;;;;94.18;88.00;;;12.70;99.90;;;;;;5246920;28;20024;-70
2023/03/31 09:02:22;;;;;;;37.15;34.95;;;12.70;99.90;;;;;;5246729;28;20059;-69
2023/03/31 09:05:23;;;;;;;39.95;37.13;;;13.10;99.90;;;;;;5246301;28;20044;-69
2023/03/31 09:08:10;;;;;;;39.80;37.35;;;13.10;99.40;;;;;;5246640;28;20037;-69
2023/03/31 09:10:52;;;;;;;85.22;80.22;;;13.30;99.90;;;;;;5246641;28;20043;-70
2023/03/31 09:13:46;;;;;;;42.22;39.72;;;13.10;99.90;;;;;;5246574;28;20377;-69
2023/03/31 09:16:47;;;;;;;79.18;74.45;;;13.10;99.90;;;;;;5246684;28;20044;-70
2023/03/31 09:19:31;;;;;;;40.60;37.83;;;12.80;99.20;;;;;;5240731;28;20058;-70
2023/03/31 09:22:08;;;;;;;51.63;48.45;;;12.50;99.90;;;;;;5246429;28;20021;-69
2023/03/31 09:24:58;;;;;;;47.58;44.67;;;12.60;99.90;;;;;;5248624;28;20081;-69
2023/03/31 09:27:31;;;;;;;44.90;42.08;;;12.30;99.70;;;;;;5250142;28;20116;-68
2023/03/31 09:30:09;;;;;;;39.15;36.70;;;12.30;99.30;;;;;;5250071;28;20499;-68
2023/03/31 09:32:40;;;;;;;38.22;35.92;;;12.40;99.90;;;;;;5249860;28;20031;-69
2023/03/31 09:35:20;;;;;;;47.25;44.30;;;12.40;99.90;;;;;;5249948;28;20086;-69
2023/03/31 09:37:54;;;;;;;36.92;34.63;;;12.30;99.90;;;;;;5249925;28;20024;-69
2023/03/31 09:40:27;;;;;;;35.72;33.40;;;12.30;99.90;;;;;;5249873;28;20039;-69
2023/03/31 09:43:13;;;;;;;111.40;104.20;;;12.40;99.90;;;;;;5249798;28;20032;-69
2023/03/31 09:45:44;;;;;;;36.75;34.42;;;12.40;99.90;;;;;;5249958;28;20076;-68
2023/03/31 09:48:25;;;;;;;42.35;39.75;;;12.60;99.90;;;;;;5249800;28;20039;-69
2023/03/31 09:51:05;;;;;;;45.40;42.47;;;12.90;99.90;;;;;;5249665;28;20025;-69
2023/03/31 09:53:57;;;;;;;73.37;68.93;;;13.10;99.90;;;;;;5250004;28;20050;-68
2023/03/31 09:56:51;;;;;;;41.35;38.83;;;13.10;99.40;;;;;;5250083;28;20765;-70
2023/03/31 09:59:33;;;;;;;44.97;42.15;;;13.70;97.90;;;;;;5249791;28;20021;-69
2023/03/31 10:02:23;;;;;;;41.20;38.47;;;13.70;97.50;;;;;;5249534;28;20032;-69
2023/03/31 10:04:54;;;;;;;36.95;34.47;;;14.40;98.20;;;;;;5249304;28;20068;-67
2023/03/31 10:07:25;;;;;;;34.70;32.40;;;14.10;98.10;;;;;;5249335;28;20364;-69
2023/03/31 10:09:56;;;;;;;37.28;34.70;;;14.40;99.90;;;;;;5249399;28;20063;-69
2023/03/31 10:12:30;;;;;;;45.05;41.05;;;13.90;99.50;;;;;;5249444;28;20064;-69
2023/03/31 10:15:18;;;;;;;36.55;33.92;;;13.70;99.80;;;;;;5249260;28;20035;-69
2023/03/31 10:17:49;;;;;;;39.65;37.10;;;14.30;99.90;;;;;;5249249;28;20107;-69
2023/03/31 10:20:32;;;;;;;37.33;34.65;;;14.30;99.90;;;;;;5249300;28;20031;-69
2023/03/31 10:23:25;;;;;;;37.75;35.20;;;14.20;99.90;;;;;;5249082;28;20029;-69
2023/03/31 10:25:57;;;;;;;40.70;37.75;;;13.90;99.90;;;;;;5249025;28;20044;-70
2023/03/31 10:28:32;;;;;;;41.33;38.50;;;14.10;99.90;;;;;;5249041;28;20025;-70
2023/03/31 10:31:04;;;;;;;37.50;35.13;;;14.30;99.90;;;;;;5248945;28;20029;-70
2023/03/31 10:33:44;;;;;;;40.47;38.03;;;14.30;99.90;;;;;;5248602;28;20051;-69
2023/03/31 10:36:23;;;;;;;43.22;40.30;;;14.20;99.90;;;;;;5247832;28;20055;-70
2023/03/31 10:38:55;;;;;;;40.80;38.10;;;14.60;99.90;;;;;;5248846;28;20554;-70
2023/03/31 10:41:28;;;;;;;38.88;36.30;;;14.60;99.90;;;;;;5248614;28;20025;-69
2023/03/31 10:44:04;;;;;;;36.60;34.30;;;14.60;99.90;;;;;;5248506;28;20095;-70
2023/03/31 10:46:51;;;;;;;35.92;33.42;;;14.70;99.90;;;;;;5248515;28;20060;-70
2023/03/31 10:49:21;;;;;;;42.05;39.40;;;14.60;99.90;;;;;;5248496;28;20566;-70
2023/03/31 10:51:58;;;;;;;36.97;34.58;;;14.60;99.90;;;;;;5248371;28;20016;-68
2023/03/31 10:54:29;;;;;;;44.42;41.67;;;14.50;99.90;;;;;;5248447;28;20098;-70
2023/03/31 10:57:03;;;;;;;39.47;37.00;;;14.20;99.90;;;;;;5248479;28;20020;-69
2023/03/31 10:59:50;;;;;;;51.33;48.00;;;14.40;99.90;;;;;;5248409;28;20036;-70
2023/03/31 11:02:47;;;;;;;42.78;39.97;;;14.20;99.90;;;;;;5248359;28;20024;-69
2023/03/31 11:05:52;;;;;;;52.78;49.55;;;14.00;99.90;;;;;;5247925;28;20072;-70
2023/03/31 11:08:50;;;;;;;51.90;48.85;;;14.00;99.90;;;;;;5225786;28;20485;-69
2023/03/31 11:11:32;;;;;;;53.88;50.58;;;13.70;99.90;;;;;;5248164;28;20025;-69
2023/03/31 11:14:18;;;;;;;46.10;42.92;;;13.80;99.90;;;;;;5248201;28;20486;-69
2023/03/31 11:16:55;;;;;;;41.22;38.63;;;13.60;99.90;;;;;;5248094;28;20078;-69
2023/03/31 11:19:38;;;;;;;45.78;42.88;;;13.60;99.90;;;;;;5247878;28;20029;-69
2023/03/31 11:22:23;;;;;;;77.07;72.05;;;13.60;99.90;;;;;;5247971;28;20021;-69
2023/03/31 11:25:20;;;;;;;48.33;45.20;;;13.60;99.90;;;;;;5247825;28;20372;-70
2023/03/31 11:28:21;;;;;;;42.22;39.45;;;13.60;99.90;;;;;;5247788;28;20032;-70
2023/03/31 11:31:19;;;;;;;47.15;44.25;;;13.50;99.90;;;;;;5247767;28;20024;-69
2023/03/31 11:34:10;;;;;;;45.92;42.85;;;13.50;99.90;;;;;;5247408;28;20037;-69
2023/03/31 11:36:49;;;;;;;;;;;13.50;99.90;;;;;;5248026;28;20028;-69
2023/03/31 11:39:39;;;;;;;42.85;40.15;;;13.50;99.90;;;;;;5247678;28;19905;-70
2023/03/31 11:42:20;;;;;;;46.05;43.25;;;13.50;99.90;;;;;;5247782;28;20036;-69
2023/03/31 11:45:01;;;;;;;51.28;47.88;;;13.50;99.90;;;;;;5246242;28;20479;-69
2023/03/31 11:47:36;;;;;;;43.58;40.88;;;13.50;99.90;;;;;;5247134;28;20043;-69
2023/03/31 11:50:15;;;;;;;46.65;43.42;;;13.50;99.90;;;;;;5247406;28;20115;-69
2023/03/31 11:53:16;;;;;;;47.08;44.13;;;13.30;99.90;;;;;;5247454;28;20380;-69
2023/03/31 11:55:52;;;;;;;51.63;48.28;;;13.30;99.90;;;;;;5246427;28;20044;-69
2023/03/31 11:58:44;;;;;;;50.20;47.03;;;13.30;99.90;;;;;;5247274;28;20039;-69
2023/03/31 12:01:27;;;;;;;49.25;46.08;;;13.40;99.90;;;;;;5247459;28;20036;-69
2023/03/31 12:04:12;;;;;;;47.83;44.72;;;13.30;99.90;;;;;;5246777;28;20047;-69
2023/03/31 12:06:45;;;;;;;49.97;46.65;;;13.20;99.90;;;;;;5247320;28;20115;-69
2023/03/31 12:09:37;;;;;;;53.83;50.40;;;13.10;99.90;;;;;;5247656;28;20016;-69
2023/03/31 12:12:11;;;;;;;56.30;52.58;;;13.00;99.90;;;;;;5247126;28;20029;-68
2023/03/31 12:14:49;;;;;;;60.17;56.35;;;13.10;99.90;;;;;;5247163;28;20052;-69
2023/03/31 12:17:26;;;;;;;53.20;49.70;;;13.00;99.90;;;;;;5247407;28;20032;-69
2023/03/31 12:20:01;;;;;;;54.00;50.35;;;13.10;99.90;;;;;;5247383;28;20028;-70
2023/03/31 12:22:37;;;;;;;55.45;51.75;;;13.10;99.90;;;;;;5247467;28;20039;-70
2023/03/31 12:25:14;;;;;;;108.18;101.47;;;13.00;99.90;;;;;;5247111;28;20107;-70
2023/03/31 12:27:48;;;;;;;59.55;55.85;;;13.00;99.90;;;;;;5247127;28;20044;-69
2023/03/31 12:30:42;;;;;;;60.97;57.10;;;13.00;99.90;;;;;;5246957;28;20025;-69
2023/03/31 12:33:29;;;;;;;61.97;58.20;;;13.00;99.90;;;;;;5246967;28;20415;-70
2023/03/31 12:36:21;;;;;;;60.33;56.65;;;13.10;99.90;;;;;;5247068;28;20029;-68
2023/03/31 12:39:11;;;;;;;60.22;56.08;;;13.10;99.90;;;;;;5246980;28;20070;-70
2023/03/31 12:42:12;;;;;;;58.45;54.88;;;13.20;99.90;;;;;;5246890;28;20044;-69
2023/03/31 12:45:14;;;;;;;59.67;55.20;;;13.20;99.90;;;;;;5246865;28;20031;-69
2023/03/31 12:47:57;;;;;;;59.35;55.63;;;13.20;99.90;;;;;;5246847;28;20094;-69
2023/03/31 12:50:56;;;;;;;54.22;50.78;;;13.40;99.90;;;;;;5246868;28;20032;-70
2023/03/31 12:53:57;;;;;;;57.37;53.77;;;13.80;99.90;;;;;;5246861;28;20024;-70
2023/03/31 12:57:00;;;;;;;58.85;55.13;;;13.70;99.90;;;;;;5246947;28;20033;-70
2023/03/31 12:59:40;;;;;;;56.83;53.13;;;14.10;99.90;;;;;;5248963;28;20021;-70
2023/03/31 13:02:14;;;;;;;56.35;52.85;;;14.30;99.90;;;;;;5249369;28;20082;-70
2023/03/31 13:04:45;;;;;;;47.78;44.42;;;14.70;99.90;;;;;;5250211;28;20457;-70
2023/03/31 13:07:19;;;;;;;45.22;42.47;;;15.30;99.90;;;;;;5250457;28;20108;-70
2023/03/31 13:10:13;;;;;;;41.50;38.78;;;15.40;99.90;;;;;;5250600;28;20024;-68
2023/03/31 13:12:59;;;;;;;40.80;38.15;;;15.30;99.90;;;;;;5250472;28;20469;-70
2023/03/31 13:15:31;;;;;;;39.08;36.47;;;15.10;99.90;;;;;;5250263;28;20027;-70
2023/03/31 13:18:05;;;;;;;56.95;53.45;;;15.10;99.90;;;;;;5250309;28;20052;-70
2023/03/31 13:20:41;;;;;;;39.30;36.40;;;14.80;99.90;;;;;;5250170;28;20021;-68